Terminal Aerodrome Forecast
Issued by NWS

Home | Current Version | Previous Version | Text Only | Print | Product List | Glossary On
Versions: 1 2 3 4 5 6 7 8 9 10 11 12 13 14
000
FTUS42 TJSJ 162340
TAFJPS
TAF
TJPS 162340Z 1700/1724 08007KT 4SM RA FEW015 SCT050 BKN070
     FM171500 12010KT P6SM +RA SCT035 BKN050
     FM171800 14010KT P6SM SHRA VCTS SCT030CB BKN050
      AMD NOT SKED TIL 170300=

USA.gov is the U.S. government's official web portal to all federal, state and local government web resources and services.